createdAt,value
2023-04-05T00:00:27.920Z,7.70
2023-04-05T00:05:30.051Z,7.40
2023-04-05T00:10:22.945Z,8.40
2023-04-05T00:15:16.252Z,8.50
2023-04-05T00:20:11.291Z,6.80
2023-04-05T00:25:04.696Z,8.00
2023-04-05T00:29:57.516Z,6.50
2023-04-05T00:34:52.141Z,6.50
2023-04-05T00:39:45.303Z,8.20
2023-04-05T00:44:38.370Z,9.60
2023-04-05T00:49:32.158Z,8.50
2023-04-05T00:54:28.642Z,10.20
2023-04-05T00:59:21.564Z,9.10
2023-04-05T01:04:21.819Z,8.80
2023-04-05T01:09:36.783Z,9.90
2023-04-05T01:14:30.279Z,8.60
2023-04-05T01:19:23.260Z,10.10
2023-04-05T01:24:46.985Z,9.60
2023-04-05T01:29:52.761Z,8.70
2023-04-05T01:34:48.321Z,9.70
2023-04-05T01:39:41.817Z,9.10
2023-04-05T01:44:34.639Z,8.70
2023-04-05T01:49:27.653Z,8.20
2023-04-05T01:54:20.487Z,8.90
2023-04-05T01:59:13.417Z,8.50
2023-04-05T02:04:06.228Z,9.30
2023-04-05T02:08:59.734Z,9.40
2023-04-05T02:13:52.526Z,8.50
2023-04-05T02:18:50.985Z,8.30
2023-04-05T02:23:44.044Z,8.20
2023-04-05T02:28:37.204Z,8.20
2023-04-05T02:33:30.017Z,8.10
2023-04-05T02:38:22.860Z,8.90
2023-04-05T02:43:15.646Z,8.00
2023-04-05T02:48:08.662Z,8.10
2023-04-05T02:53:01.567Z,8.20
2023-04-05T02:58:01.158Z,8.10
2023-04-05T03:02:59.160Z,7.40
2023-04-05T03:07:52.887Z,7.50
2023-04-05T03:12:48.605Z,7.10
2023-04-05T03:17:44.332Z,7.80
2023-04-05T03:22:37.808Z,8.00
2023-04-05T03:27:32.086Z,7.60
2023-04-05T03:32:31.793Z,7.80
2023-04-05T03:37:30.243Z,5.50
2023-04-05T03:42:28.492Z,7.10
2023-04-05T03:47:22.854Z,6.70
2023-04-05T03:52:16.534Z,6.60
2023-04-05T03:57:10.726Z,7.30
2023-04-05T04:02:04.573Z,8.10
2023-04-05T04:06:58.271Z,8.00
2023-04-05T04:11:52.976Z,7.80
2023-04-05T04:16:47.662Z,6.90
2023-04-05T04:22:10.317Z,8.10
2023-04-05T04:27:23.563Z,7.40
2023-04-05T04:32:52.108Z,8.60
2023-04-05T04:38:08.566Z,8.80
2023-04-05T04:43:18.298Z,7.70
2023-04-05T04:48:28.468Z,8.70
2023-04-05T04:53:37.210Z,9.50
2023-04-05T04:58:30.288Z,9.90
2023-04-05T05:03:32.332Z,9.50
2023-04-05T05:08:25.294Z,9.90
2023-04-05T05:13:18.071Z,8.90
2023-04-05T05:18:12.469Z,8.60
2023-04-05T05:23:05.590Z,9.90
2023-04-05T05:27:58.563Z,10.20
2023-04-05T05:32:53.023Z,11.70
2023-04-05T05:37:45.918Z,15.00
2023-04-05T05:42:38.802Z,11.50
2023-04-05T05:47:31.606Z,13.90
2023-04-05T05:52:24.734Z,15.20
2023-04-05T05:57:17.807Z,14.60
2023-04-05T06:02:12.101Z,15.20
2023-04-05T06:07:05.011Z,13.60
2023-04-05T06:11:58.575Z,11.90
2023-04-05T06:16:51.388Z,14.20
2023-04-05T06:21:44.160Z,12.90
2023-04-05T06:26:36.996Z,12.30
2023-04-05T06:31:35.799Z,13.40
2023-04-05T06:36:31.720Z,11.50
2023-04-05T06:41:24.749Z,13.30
2023-04-05T06:46:17.592Z,13.50
2023-04-05T06:51:10.566Z,14.60
2023-04-05T06:56:04.040Z,10.70
2023-04-05T07:00:56.877Z,9.60
2023-04-05T07:05:55.102Z,10.40
2023-04-05T07:10:49.521Z,9.20
2023-04-05T07:15:42.518Z,4.20
2023-04-05T07:20:35.326Z,7.50
2023-04-05T07:25:28.221Z,6.00
2023-04-05T07:30:22.193Z,5.60
2023-04-05T07:35:15.472Z,7.60
2023-04-05T07:40:11.163Z,7.00
2023-04-05T07:45:04.417Z,7.00
2023-04-05T07:49:59.535Z,6.10
2023-04-05T07:54:52.352Z,15.80
2023-04-05T07:59:45.704Z,6.80
2023-04-05T08:04:38.588Z,5.10
2023-04-05T08:09:31.370Z,3.90
2023-04-05T08:14:24.720Z,3.90
2023-04-05T08:19:18.035Z,3.50
2023-04-05T08:24:11.036Z,4.50
2023-04-05T08:29:03.830Z,4.60
2023-04-05T08:33:56.646Z,4.20
2023-04-05T08:38:49.426Z,4.30
2023-04-05T08:43:53.047Z,4.20
2023-04-05T08:48:46.597Z,4.50
2023-04-05T08:53:40.016Z,4.60
2023-04-05T08:58:35.591Z,5.00
2023-04-05T09:03:36.568Z,4.50
2023-04-05T09:08:29.754Z,5.90
2023-04-05T09:13:22.997Z,6.70
2023-04-05T09:18:26.778Z,7.80
2023-04-05T09:23:22.159Z,7.80
2023-04-05T09:28:15.067Z,10.20
2023-04-05T09:33:11.012Z,9.50
2023-04-05T09:38:06.276Z,10.00
2023-04-05T09:43:01.584Z,10.20
2023-04-05T09:47:58.786Z,11.10
2023-04-05T09:52:52.642Z,9.80
2023-04-05T09:57:46.942Z,11.20
2023-04-05T10:02:41.412Z,10.30
2023-04-05T10:07:35.905Z,10.90
2023-04-05T10:12:29.586Z,10.10
2023-04-05T10:17:29.552Z,9.90
2023-04-05T10:22:31.338Z,10.30
2023-04-05T10:27:54.839Z,9.70
2023-04-05T10:33:09.502Z,10.60
2023-04-05T10:38:13.308Z,8.10
2023-04-05T10:43:15.371Z,12.40
2023-04-05T10:48:31.499Z,8.60
2023-04-05T10:53:26.810Z,7.20
2023-04-05T10:58:20.729Z,8.40
2023-04-05T11:03:45.716Z,9.20
2023-04-05T11:08:44.259Z,5.70
2023-04-05T11:13:57.380Z,5.70
2023-04-05T11:18:54.234Z,5.50
2023-04-05T11:24:02.602Z,6.40
2023-04-05T11:28:59.353Z,8.70
2023-04-05T11:33:57.693Z,9.50
2023-04-05T11:39:20.370Z,6.70
2023-04-05T11:44:17.391Z,7.20
2023-04-05T11:49:11.032Z,5.70
2023-04-05T11:54:03.929Z,5.40
2023-04-05T11:59:00.472Z,7.00
2023-04-05T12:03:57.886Z,6.70
2023-04-05T12:08:51.467Z,6.20
2023-04-05T12:13:46.704Z,7.00
2023-04-05T12:18:39.946Z,6.30
2023-04-05T12:23:33.423Z,6.60
2023-04-05T12:28:27.018Z,6.20
2023-04-05T12:33:35.622Z,6.40
2023-04-05T12:38:28.842Z,5.40
2023-04-05T12:43:22.000Z,5.30
2023-04-05T12:48:16.310Z,5.10
2023-04-05T12:53:09.130Z,6.20
2023-04-05T12:58:03.844Z,5.70
2023-04-05T13:02:58.673Z,6.70
2023-04-05T13:07:52.053Z,5.40
2023-04-05T13:12:45.035Z,5.50
2023-04-05T13:17:38.228Z,4.90
2023-04-05T13:22:51.348Z,5.50
2023-04-05T13:27:46.976Z,5.50
2023-04-05T13:32:39.839Z,5.40
2023-04-05T13:37:33.105Z,4.80
2023-04-05T13:42:26.156Z,5.00
2023-04-05T13:47:20.162Z,4.80
2023-04-05T13:52:13.631Z,5.20
2023-04-05T13:57:06.535Z,5.10
2023-04-05T14:01:59.384Z,4.60
2023-04-05T14:06:52.270Z,4.70
2023-04-05T14:11:45.377Z,4.50
2023-04-05T14:16:38.277Z,5.10
2023-04-05T14:21:31.971Z,5.20
2023-04-05T14:26:26.883Z,4.90
2023-04-05T14:31:19.774Z,4.80
2023-04-05T14:36:12.695Z,5.50
2023-04-05T14:41:08.779Z,4.70
2023-04-05T14:46:02.448Z,4.40
2023-04-05T14:50:55.556Z,3.90
2023-04-05T14:55:48.443Z,6.20
2023-04-05T15:00:41.450Z,4.30
2023-04-05T15:05:34.541Z,4.00
2023-04-05T15:10:27.565Z,4.70
2023-04-05T15:15:20.430Z,4.40
2023-04-05T15:20:15.093Z,4.60
2023-04-05T15:25:11.674Z,3.90
2023-04-05T15:30:04.760Z,3.80
2023-04-05T15:34:58.120Z,4.50
2023-04-05T15:39:50.897Z,4.20
2023-04-05T15:44:44.137Z,4.50
2023-04-05T15:49:36.901Z,4.20
2023-04-05T15:54:29.827Z,4.30
2023-04-05T15:59:22.751Z,4.00
2023-04-05T16:04:15.933Z,4.10
2023-04-05T16:09:08.939Z,3.90
2023-04-05T16:14:02.023Z,3.90
2023-04-05T16:18:54.958Z,4.70
2023-04-05T16:23:47.956Z,4.50
2023-04-05T16:28:42.670Z,4.20
2023-04-05T16:33:35.606Z,3.90
2023-04-05T16:38:28.436Z,4.00
2023-04-05T16:43:21.288Z,4.90
2023-04-05T16:48:15.241Z,5.10
2023-04-05T16:53:08.086Z,21.70
2023-04-05T16:58:01.198Z,37.20
2023-04-05T17:02:54.729Z,9.20
2023-04-05T17:07:47.978Z,7.40
2023-04-05T17:12:42.300Z,7.90
2023-04-05T17:17:37.292Z,6.60
2023-04-05T17:22:31.665Z,9.40
2023-04-05T17:27:26.017Z,7.60
2023-04-05T17:32:19.044Z,5.00
2023-04-05T17:37:11.875Z,5.40
2023-04-05T17:42:04.732Z,5.10
2023-04-05T17:47:08.639Z,6.50
2023-04-05T17:52:02.591Z,5.90
2023-04-05T17:56:56.565Z,6.20
2023-04-05T18:01:53.845Z,5.30
2023-04-05T18:06:46.860Z,4.60
2023-04-05T18:11:41.252Z,4.50
2023-04-05T18:16:34.742Z,4.80
2023-04-05T18:21:31.329Z,4.60
2023-04-05T18:26:24.742Z,4.90
2023-04-05T18:31:17.805Z,6.00
2023-04-05T18:36:12.821Z,6.40
2023-04-05T18:41:07.305Z,9.30
2023-04-05T18:46:00.176Z,9.80
2023-04-05T18:50:54.179Z,9.80
2023-04-05T18:55:47.166Z,8.90
2023-04-05T19:00:39.932Z,10.70
2023-04-05T19:05:33.140Z,9.40
2023-04-05T19:10:45.318Z,7.60
2023-04-05T19:15:42.673Z,8.00
2023-04-05T19:20:35.564Z,7.90
2023-04-05T19:25:31.003Z,10.20
2023-04-05T19:30:24.032Z,7.40
2023-04-05T19:35:17.162Z,7.50
2023-04-05T19:40:12.365Z,7.20
2023-04-05T19:45:09.395Z,10.20
2023-04-05T19:50:02.236Z,10.10
2023-04-05T19:54:55.397Z,15.80
2023-04-05T19:59:48.552Z,8.70
2023-04-05T20:04:43.474Z,7.20
2023-04-05T20:09:41.201Z,7.30
2023-04-05T20:14:45.989Z,7.50
2023-04-05T20:19:41.606Z,15.60
2023-04-05T20:24:34.755Z,11.90
2023-04-05T20:29:32.370Z,13.40
2023-04-05T20:39:20.317Z,14.50
2023-04-05T20:44:13.376Z,12.60
2023-04-05T20:49:06.992Z,9.40
2023-04-05T20:54:00.183Z,9.00
2023-04-05T20:58:54.692Z,9.90
2023-04-05T21:03:47.719Z,10.90
2023-04-05T21:08:41.752Z,11.20
2023-04-05T21:13:36.001Z,9.90
2023-04-05T21:18:28.794Z,10.30
2023-04-05T21:23:27.068Z,10.60
2023-04-05T21:28:20.093Z,8.40
2023-04-05T21:33:13.677Z,8.20
2023-04-05T21:38:07.251Z,9.40
2023-04-05T21:43:22.980Z,7.50
2023-04-05T21:53:27.888Z,8.00
2023-04-05T22:05:25.704Z,8.20
2023-04-05T22:10:59.505Z,7.30
2023-04-05T22:16:16.329Z,8.70
2023-04-05T22:21:26.718Z,8.70
2023-04-05T22:26:23.762Z,10.70
2023-04-05T22:31:17.809Z,10.70
2023-04-05T22:36:29.118Z,10.50
2023-04-05T22:41:22.139Z,11.80
2023-04-05T22:46:18.556Z,11.30
2023-04-05T22:51:36.205Z,14.40
2023-04-05T22:56:37.421Z,14.80
2023-04-05T23:02:02.675Z,16.20
2023-04-05T23:07:18.341Z,12.60
2023-04-05T23:12:12.720Z,11.80
2023-04-05T23:17:05.577Z,18.00
2023-04-05T23:21:59.997Z,11.60
2023-04-05T23:26:53.128Z,13.40
2023-04-05T23:31:48.233Z,14.30
2023-04-05T23:36:41.454Z,20.20
2023-04-05T23:41:34.257Z,17.70
2023-04-05T23:46:27.198Z,13.60
2023-04-05T23:51:20.337Z,11.60
2023-04-05T23:56:17.949Z,10.70
